Time;durP1;ratioP1;P1;durP2;ratioP2;P2;SDS_P1;SDS_P2;PMS_P1;PMS_P2;Temp;Humidity;BMP_temperature;BMP_pressure;BME280_temperature;BME280_humidity;BME280_pressure;Samples;Min_cycle;Max_cycle;Signal;HPM_P1;HPM_P2
2023/01/10 00:00:34;;;;;;;3.50;1.10;;;8.30;99.90;;;;;;4916079;29;20230;-71
2023/01/10 00:03:07;;;;;;;1.80;1.10;;;8.40;99.90;;;;;;4927003;29;20263;-70
2023/01/10 00:05:33;;;;;;;3.80;1.40;;;8.30;99.90;;;;;;4936877;29;20177;-71
2023/01/10 00:08:00;;;;;;;2.60;1.30;;;8.40;99.90;;;;;;4921122;29;20186;-71
2023/01/10 00:10:27;;;;;;;4.00;1.27;;;8.30;99.90;;;;;;4919480;29;20207;-70
2023/01/10 00:15:38;;;;;;;2.13;1.50;;;8.30;99.90;;;;;;4921465;29;20201;-69
2023/01/10 00:18:06;;;;;;;3.80;1.73;;;8.30;99.90;;;;;;4919489;29;20364;-69
2023/01/10 00:20:37;;;;;;;4.30;1.60;;;8.30;99.90;;;;;;4916796;29;20195;-68
2023/01/10 00:23:05;;;;;;;2.67;1.37;;;8.20;99.90;;;;;;4936230;29;20173;-69
2023/01/10 00:25:35;;;;;;;2.50;1.40;;;8.20;99.90;;;;;;4921734;29;20210;-69
2023/01/10 00:28:03;;;;;;;2.43;1.30;;;8.20;99.90;;;;;;4923261;29;20257;-70
2023/01/10 00:30:29;;;;;;;2.90;1.60;;;8.20;99.90;;;;;;4919671;29;20178;-69
2023/01/10 00:32:55;;;;;;;2.77;1.43;;;8.20;99.90;;;;;;4915555;29;20189;-71
2023/01/10 00:35:26;;;;;;;2.67;1.17;;;8.20;99.90;;;;;;4931174;29;20196;-70
2023/01/10 00:37:56;;;;;;;3.37;1.40;;;8.20;99.90;;;;;;4919332;29;20206;-70
2023/01/10 00:40:22;;;;;;;3.17;1.47;;;8.30;99.90;;;;;;4919691;29;20197;-70
2023/01/10 00:45:37;;;;;;;3.90;1.43;;;8.30;99.90;;;;;;4920743;29;20215;-71
2023/01/10 00:48:05;;;;;;;3.60;1.30;;;8.30;99.90;;;;;;4919639;29;20174;-70
2023/01/10 00:50:30;;;;;;;2.57;1.20;;;8.30;99.90;;;;;;4916381;29;20233;-71
2023/01/10 00:52:58;;;;;;;3.30;1.30;;;8.30;99.90;;;;;;4924472;29;20186;-70
2023/01/10 00:55:27;;;;;;;3.33;1.10;;;8.30;99.90;;;;;;4916347;29;20224;-70
2023/01/10 00:57:53;;;;;;;3.23;1.40;;;8.30;99.90;;;;;;4923084;29;20212;-70
2023/01/10 01:00:18;;;;;;;3.47;1.30;;;8.40;99.90;;;;;;4914843;29;20199;-70
2023/01/10 01:02:44;;;;;;;3.37;1.30;;;8.30;99.90;;;;;;4920018;29;20186;-70
2023/01/10 01:05:10;;;;;;;3.50;1.20;;;8.30;99.90;;;;;;4920191;29;20194;-71
2023/01/10 01:07:36;;;;;;;3.47;1.23;;;8.40;99.90;;;;;;4919311;29;20182;-71
2023/01/10 01:12:45;;;;;;;3.10;1.47;;;8.30;99.90;;;;;;4924009;29;20205;-70
2023/01/10 01:15:11;;;;;;;3.57;1.47;;;8.40;99.90;;;;;;4925700;29;20186;-70
2023/01/10 01:17:41;;;;;;;6.70;1.57;;;8.40;99.90;;;;;;4915657;29;20206;-70
2023/01/10 01:20:10;;;;;;;5.47;1.70;;;8.40;99.90;;;;;;4916761;29;20202;-70
2023/01/10 01:22:38;;;;;;;4.33;1.50;;;8.40;99.90;;;;;;4915263;29;20183;-70
2023/01/10 01:25:07;;;;;;;4.47;1.50;;;8.50;99.90;;;;;;4917257;29;20189;-70
2023/01/10 01:27:33;;;;;;;3.83;1.30;;;8.40;99.90;;;;;;4918013;29;20181;-70
2023/01/10 01:30:00;;;;;;;2.67;1.40;;;8.40;99.90;;;;;;4927422;29;20197;-70
2023/01/10 01:32:28;;;;;;;4.90;1.67;;;8.60;99.90;;;;;;4918412;29;20216;-71
2023/01/10 01:34:54;;;;;;;4.43;1.23;;;8.40;99.90;;;;;;4918549;29;20198;-70
2023/01/10 01:37:20;;;;;;;2.57;1.30;;;8.40;99.90;;;;;;4918487;29;20245;-70
2023/01/10 01:39:45;;;;;;;2.80;1.27;;;8.40;99.90;;;;;;4918844;29;20202;-69
2023/01/10 01:42:23;;;;;;;4.60;1.23;;;8.50;99.90;;;;;;4914306;29;20179;-70
2023/01/10 01:45:07;;;;;;;3.10;1.30;;;8.50;99.90;;;;;;4931832;29;20293;-69
2023/01/10 01:47:44;;;;;;;4.00;1.30;;;8.50;99.90;;;;;;4923954;29;20193;-69
2023/01/10 01:50:31;;;;;;;2.87;1.30;;;8.50;99.90;;;;;;4918101;29;20318;-69
2023/01/10 01:53:02;;;;;;;4.63;1.47;;;8.50;99.90;;;;;;4943427;29;20276;-70
2023/01/10 01:55:31;;;;;;;3.13;1.13;;;8.50;99.90;;;;;;5207599;23;20192;-70
2023/01/10 01:58:02;;;;;;;7.97;1.63;;;8.50;99.90;;;;;;4920837;29;20462;-69
2023/01/10 02:00:30;;;;;;;4.70;1.57;;;8.40;99.90;;;;;;4925482;29;20215;-71
2023/01/10 02:02:58;;;;;;;2.37;1.33;;;8.50;99.90;;;;;;4912825;29;20284;-71
2023/01/10 02:05:25;;;;;;;2.60;1.53;;;8.60;99.90;;;;;;4915668;29;20178;-71
2023/01/10 02:07:56;;;;;;;3.23;1.60;;;8.50;99.90;;;;;;4917849;29;20177;-71
2023/01/10 02:10:30;;;;;;;3.57;1.60;;;8.50;99.90;;;;;;4911954;29;20262;-71
2023/01/10 02:13:01;;;;;;;7.67;1.53;;;8.40;99.90;;;;;;4916853;29;20204;-71
2023/01/10 02:15:27;;;;;;;3.93;1.67;;;8.50;99.90;;;;;;4918020;29;20182;-71
2023/01/10 02:17:53;;;;;;;3.77;1.70;;;8.40;99.90;;;;;;4917879;29;20238;-70
2023/01/10 02:20:22;;;;;;;5.07;2.00;;;8.40;99.90;;;;;;4917082;29;20201;-71
2023/01/10 02:23:15;;;;;;;5.70;1.87;;;8.40;99.90;;;;;;4917835;29;20205;-70
2023/01/10 02:25:53;;;;;;;5.53;1.57;;;8.40;99.90;;;;;;4919125;29;20243;-70
2023/01/10 02:28:40;;;;;;;5.20;1.47;;;8.40;99.90;;;;;;4936844;29;20208;-71
2023/01/10 02:31:27;;;;;;;4.50;1.80;;;8.40;99.90;;;;;;4916696;29;20276;-70
2023/01/10 02:34:15;;;;;;;4.60;1.70;;;8.40;99.90;;;;;;4908280;29;20288;-70
2023/01/10 02:36:56;;;;;;;4.07;1.70;;;8.40;99.90;;;;;;4917658;29;20170;-70
2023/01/10 02:39:51;;;;;;;3.73;1.77;;;8.40;99.90;;;;;;4917624;29;20190;-70
2023/01/10 02:42:32;;;;;;;5.60;1.70;;;8.40;99.90;;;;;;4922106;29;20240;-70
2023/01/10 02:45:01;;;;;;;5.53;2.20;;;8.40;99.90;;;;;;4912902;29;20192;-71
2023/01/10 02:47:40;;;;;;;7.23;1.70;;;8.40;99.90;;;;;;4919654;29;20207;-70
2023/01/10 02:50:35;;;;;;;4.77;1.83;;;8.40;99.90;;;;;;4917078;29;20205;-70
2023/01/10 02:53:18;;;;;;;3.63;1.60;;;8.40;99.90;;;;;;4917469;29;20189;-71
2023/01/10 02:56:11;;;;;;;6.30;1.87;;;8.40;99.90;;;;;;4921297;29;20201;-70
2023/01/10 02:58:58;;;;;;;3.67;1.70;;;8.40;99.90;;;;;;4932805;29;20170;-70
2023/01/10 03:01:27;;;;;;;3.33;1.47;;;8.40;99.90;;;;;;4917673;29;20263;-70
2023/01/10 03:04:02;;;;;;;3.47;1.60;;;8.30;99.90;;;;;;4918806;29;20221;-71
2023/01/10 03:06:41;;;;;;;2.77;1.30;;;8.30;99.90;;;;;;4917883;29;20210;-70
2023/01/10 03:09:11;;;;;;;3.00;1.47;;;8.30;99.90;;;;;;4923355;29;20201;-70
2023/01/10 03:11:41;;;;;;;4.57;1.80;;;8.30;99.90;;;;;;4914407;29;20217;-71
2023/01/10 03:14:15;;;;;;;6.40;1.50;;;8.30;99.90;;;;;;4915059;29;20182;-70
2023/01/10 03:16:48;;;;;;;3.80;1.40;;;8.30;99.90;;;;;;4924565;29;20245;-70
2023/01/10 03:19:22;;;;;;;4.80;1.50;;;8.40;99.90;;;;;;4917347;29;20261;-70
2023/01/10 03:21:52;;;;;;;3.43;1.60;;;8.30;99.90;;;;;;4929178;29;20185;-70
2023/01/10 03:24:34;;;;;;;3.23;1.50;;;8.20;99.90;;;;;;4913940;29;20167;-70
2023/01/10 03:27:08;;;;;;;3.77;1.50;;;8.20;99.90;;;;;;4906581;29;20203;-70
2023/01/10 03:29:50;;;;;;;4.60;1.53;;;8.20;99.90;;;;;;4913316;29;20250;-70
2023/01/10 03:32:21;;;;;;;4.33;1.50;;;8.20;99.90;;;;;;4916410;29;20186;-70
2023/01/10 03:34:47;;;;;;;3.63;1.40;;;8.20;99.90;;;;;;4898945;29;20214;-70
2023/01/10 03:37:22;;;;;;;4.30;1.40;;;8.20;99.90;;;;;;4913828;29;20205;-70
2023/01/10 03:40:05;;;;;;;4.67;1.40;;;8.20;99.90;;;;;;4917123;29;20248;-70
2023/01/10 03:45:49;;;;;;;3.50;1.60;;;8.20;99.90;;;;;;4901753;29;20216;-70
2023/01/10 03:48:17;;;;;;;3.77;1.53;;;8.20;99.90;;;;;;4913814;29;20246;-70
2023/01/10 03:50:44;;;;;;;2.47;1.40;;;8.10;99.90;;;;;;4912409;29;20186;-70
2023/01/10 03:53:13;;;;;;;5.43;1.50;;;8.20;99.90;;;;;;4926648;29;20186;-70
2023/01/10 03:55:40;;;;;;;4.03;1.70;;;8.10;99.90;;;;;;4921071;29;20182;-70
2023/01/10 03:58:11;;;;;;;3.10;1.50;;;8.10;99.90;;;;;;4922176;29;20260;-70
2023/01/10 04:00:36;;;;;;;4.93;1.60;;;8.10;99.90;;;;;;4917538;29;20202;-70
2023/01/10 04:03:02;;;;;;;5.40;1.50;;;8.10;99.90;;;;;;4902598;29;20177;-69
2023/01/10 04:05:27;;;;;;;7.27;2.10;;;8.00;99.90;;;;;;4912827;29;20274;-69
2023/01/10 04:07:56;;;;;;;5.30;1.63;;;8.00;99.90;;;;;;4920810;29;20187;-69
2023/01/10 04:10:21;;;;;;;4.20;1.67;;;8.00;99.90;;;;;;4920399;29;20200;-69
2023/01/10 04:12:49;;;;;;;4.90;1.43;;;8.00;99.90;;;;;;4912952;29;20185;-70
2023/01/10 04:15:17;;;;;;;4.63;1.80;;;8.00;99.90;;;;;;4920129;29;20185;-71
2023/01/10 04:17:42;;;;;;;5.43;1.80;;;7.90;99.90;;;;;;4918507;29;20203;-71
2023/01/10 04:20:09;;;;;;;6.13;1.80;;;7.90;99.90;;;;;;4924201;29;20217;-70
2023/01/10 04:22:34;;;;;;;7.07;1.87;;;7.90;99.90;;;;;;4919470;29;20187;-72
2023/01/10 04:25:00;;;;;;;4.63;1.70;;;7.90;99.90;;;;;;4920535;29;20178;-70
2023/01/10 04:27:26;;;;;;;7.53;2.00;;;7.90;99.90;;;;;;4918699;29;20241;-71
2023/01/10 04:29:54;;;;;;;8.20;1.80;;;7.90;99.90;;;;;;4908758;29;20437;-70
2023/01/10 04:32:22;;;;;;;5.77;1.80;;;7.90;99.90;;;;;;4902476;29;20266;-72
2023/01/10 04:34:50;;;;;;;8.07;2.27;;;7.80;99.90;;;;;;4904921;29;20339;-71
2023/01/10 04:37:15;;;;;;;6.77;2.17;;;7.70;99.90;;;;;;4904935;29;20194;-71
2023/01/10 04:39:41;;;;;;;4.60;1.70;;;7.70;99.90;;;;;;4911025;29;20201;-71
2023/01/10 04:42:06;;;;;;;3.60;1.67;;;7.60;99.90;;;;;;4919613;29;20226;-72
2023/01/10 04:44:32;;;;;;;3.20;1.40;;;7.50;99.90;;;;;;4927957;29;20192;-71
2023/01/10 04:46:57;;;;;;;4.37;1.87;;;7.60;99.90;;;;;;4919801;29;20178;-70
2023/01/10 04:49:23;;;;;;;6.73;1.77;;;7.50;99.90;;;;;;4920980;29;20526;-70
2023/01/10 04:51:49;;;;;;;2.53;1.40;;;7.50;99.90;;;;;;4919259;29;20246;-71
2023/01/10 04:54:22;;;;;;;4.57;1.60;;;7.50;99.90;;;;;;4917877;29;20182;-70
2023/01/10 04:56:47;;;;;;;5.63;1.90;;;7.40;99.90;;;;;;4921824;29;20253;-72
2023/01/10 04:59:13;;;;;;;7.53;1.83;;;7.40;99.90;;;;;;4909684;29;20186;-71
2023/01/10 05:01:39;;;;;;;4.70;1.60;;;7.40;99.90;;;;;;4915525;29;20207;-72
2023/01/10 05:04:07;;;;;;;6.43;1.83;;;7.40;99.90;;;;;;4917230;29;20185;-71
2023/01/10 05:06:38;;;;;;;4.97;2.07;;;7.30;99.90;;;;;;4917566;29;20217;-70
2023/01/10 05:09:04;;;;;;;3.90;1.80;;;7.30;99.90;;;;;;4918999;29;20170;-71
2023/01/10 05:11:30;;;;;;;5.23;1.90;;;7.50;99.90;;;;;;4918785;29;20245;-71
2023/01/10 05:13:58;;;;;;;5.37;1.70;;;7.30;99.90;;;;;;4917732;29;20440;-70
2023/01/10 05:16:24;;;;;;;6.47;1.83;;;7.30;99.90;;;;;;4917758;29;20272;-71
2023/01/10 05:18:50;;;;;;;6.00;1.60;;;7.30;99.90;;;;;;4911384;29;20310;-72
2023/01/10 05:21:16;;;;;;;6.63;1.73;;;7.30;99.90;;;;;;4917735;29;20218;-70
2023/01/10 05:23:41;;;;;;;5.37;1.80;;;7.30;99.90;;;;;;4910926;29;20260;-71
2023/01/10 05:26:14;;;;;;;5.27;1.60;;;7.20;99.90;;;;;;4918144;29;20269;-71
2023/01/10 05:28:41;;;;;;;5.57;1.60;;;7.30;99.90;;;;;;4907241;29;20182;-71
2023/01/10 05:31:11;;;;;;;4.97;1.70;;;7.20;99.90;;;;;;4918909;29;20282;-68
2023/01/10 05:33:37;;;;;;;5.47;1.83;;;7.20;99.90;;;;;;4940589;29;20185;-66
2023/01/10 05:36:07;;;;;;;5.57;1.60;;;7.20;99.90;;;;;;4920095;28;20261;-72
2023/01/10 05:38:33;;;;;;;6.50;1.43;;;7.20;99.90;;;;;;4926208;29;20201;-70
2023/01/10 05:40:59;;;;;;;5.07;1.80;;;7.10;99.90;;;;;;4918550;29;20210;-71
2023/01/10 05:43:28;;;;;;;7.13;1.93;;;7.10;99.90;;;;;;4912434;29;20238;-72
2023/01/10 05:45:54;;;;;;;4.03;1.87;;;7.10;99.90;;;;;;4917717;29;20178;-71
2023/01/10 05:48:19;;;;;;;5.33;1.70;;;7.10;99.90;;;;;;4918494;29;20186;-70
2023/01/10 05:50:47;;;;;;;5.07;1.70;;;7.20;99.90;;;;;;4917971;29;20206;-70
2023/01/10 05:53:13;;;;;;;4.73;1.80;;;7.20;99.90;;;;;;4912603;29;20183;-70
2023/01/10 05:55:41;;;;;;;3.27;1.50;;;7.20;99.90;;;;;;4905460;29;20194;-72
2023/01/10 05:58:07;;;;;;;5.20;1.80;;;7.20;99.90;;;;;;4921862;29;20210;-71
2023/01/10 06:00:38;;;;;;;6.53;1.77;;;7.30;99.90;;;;;;4889657;29;20259;-70
2023/01/10 06:03:04;;;;;;;5.20;1.87;;;7.50;99.90;;;;;;4908100;29;20238;-71
2023/01/10 06:05:30;;;;;;;6.30;1.90;;;7.30;99.90;;;;;;4907714;29;20197;-71
2023/01/10 06:08:00;;;;;;;7.03;1.70;;;7.30;99.90;;;;;;4917117;29;20185;-71
2023/01/10 06:10:26;;;;;;;2.87;1.33;;;7.40;99.90;;;;;;4919729;29;20174;-70
2023/01/10 06:12:53;;;;;;;5.37;1.70;;;7.40;99.90;;;;;;4919195;29;20207;-72
2023/01/10 06:15:19;;;;;;;4.83;1.70;;;7.40;99.90;;;;;;4929244;29;20217;-69
2023/01/10 06:17:45;;;;;;;4.80;1.90;;;7.40;99.90;;;;;;4931567;29;20185;-70
2023/01/10 06:20:12;;;;;;;3.27;1.60;;;7.40;99.90;;;;;;4940260;29;20193;-71
2023/01/10 06:22:42;;;;;;;4.53;1.53;;;7.30;99.90;;;;;;4934526;29;21598;-71
2023/01/10 06:25:12;;;;;;;4.60;2.03;;;7.30;99.90;;;;;;4928063;29;20183;-71
2023/01/10 06:27:42;;;;;;;5.23;2.00;;;7.30;99.90;;;;;;4933438;29;20198;-68
2023/01/10 06:30:09;;;;;;;3.73;1.40;;;7.30;99.90;;;;;;4900590;29;20175;-71
2023/01/10 06:32:38;;;;;;;3.40;1.77;;;7.30;99.90;;;;;;4902462;29;20202;-71
2023/01/10 06:35:06;;;;;;;4.37;1.67;;;7.30;99.90;;;;;;4918246;29;20182;-71
2023/01/10 06:37:34;;;;;;;4.17;1.57;;;7.30;99.90;;;;;;4918466;29;20182;-72
2023/01/10 06:40:00;;;;;;;6.33;1.60;;;7.20;99.90;;;;;;4914603;29;20218;-71
2023/01/10 06:42:25;;;;;;;6.50;1.57;;;7.30;99.90;;;;;;4917807;29;20188;-72
2023/01/10 06:44:51;;;;;;;6.00;1.80;;;7.20;99.90;;;;;;4913966;29;20187;-71
2023/01/10 06:47:16;;;;;;;8.17;1.87;;;7.20;99.90;;;;;;4911167;29;20179;-71
2023/01/10 06:49:42;;;;;;;5.30;1.90;;;7.20;99.90;;;;;;4911557;29;20241;-70
2023/01/10 06:52:08;;;;;;;5.73;1.67;;;7.20;99.90;;;;;;4913478;29;20233;-71
2023/01/10 06:54:33;;;;;;;4.87;1.53;;;7.20;99.90;;;;;;4915547;29;20186;-70
2023/01/10 06:56:59;;;;;;;4.40;1.60;;;7.20;99.90;;;;;;4913641;29;20361;-70
2023/01/10 06:59:27;;;;;;;4.10;1.67;;;7.20;99.90;;;;;;4915956;29;20285;-71
2023/01/10 07:01:55;;;;;;;7.07;1.80;;;7.20;99.90;;;;;;4917295;29;20186;-72
2023/01/10 07:04:23;;;;;;;5.80;1.70;;;7.20;99.90;;;;;;4913973;29;20191;-70
2023/01/10 07:06:51;;;;;;;3.80;1.60;;;7.20;99.90;;;;;;4914309;29;20185;-71
2023/01/10 07:09:16;;;;;;;7.37;2.20;;;7.20;99.90;;;;;;4915408;29;20206;-70
2023/01/10 07:11:44;;;;;;;8.77;2.20;;;7.20;99.90;;;;;;4915570;29;20193;-71
2023/01/10 07:14:12;;;;;;;8.83;2.37;;;7.20;99.90;;;;;;4917256;29;20446;-70
2023/01/10 07:16:37;;;;;;;6.93;2.23;;;7.20;99.90;;;;;;4917043;29;20280;-69
2023/01/10 07:19:03;;;;;;;4.73;1.93;;;7.20;99.90;;;;;;4917091;29;20273;-70
2023/01/10 07:21:29;;;;;;;7.10;2.13;;;7.20;99.90;;;;;;4917123;29;20213;-71
2023/01/10 07:23:54;;;;;;;4.80;1.80;;;7.20;99.90;;;;;;4916345;29;20328;-71
2023/01/10 07:26:20;;;;;;;9.87;2.00;;;7.20;99.90;;;;;;4905268;29;20210;-68
2023/01/10 07:28:49;;;;;;;6.33;1.53;;;7.20;99.90;;;;;;4941289;28;20181;-69
2023/01/10 07:31:17;;;;;;;6.47;1.97;;;7.20;99.90;;;;;;4926811;28;20227;-71
2023/01/10 07:33:45;;;;;;;8.97;1.90;;;7.20;99.90;;;;;;4916321;29;20193;-72
2023/01/10 07:36:13;;;;;;;7.83;1.93;;;7.30;99.90;;;;;;4916031;29;20269;-72
2023/01/10 07:38:39;;;;;;;6.30;1.77;;;7.20;99.90;;;;;;4913453;29;20188;-72
2023/01/10 07:41:05;;;;;;;7.53;2.20;;;7.20;99.90;;;;;;4920056;29;20214;-70
2023/01/10 07:43:33;;;;;;;7.93;2.80;;;7.20;99.90;;;;;;4920312;29;20230;-72
2023/01/10 07:46:02;;;;;;;7.83;2.57;;;7.20;99.90;;;;;;4917031;29;20194;-70
2023/01/10 07:48:28;;;;;;;4.37;2.50;;;7.20;99.90;;;;;;4920122;29;20190;-72
2023/01/10 07:51:00;;;;;;;8.57;2.13;;;7.20;99.90;;;;;;4920541;29;20189;-71
2023/01/10 07:53:27;;;;;;;6.13;1.93;;;7.20;99.90;;;;;;4917289;29;20202;-71
2023/01/10 07:55:57;;;;;;;7.97;2.00;;;7.10;99.90;;;;;;5117869;23;20367;-69
2023/01/10 07:58:23;;;;;;;5.87;1.77;;;7.10;99.90;;;;;;4899444;29;20182;-71
2023/01/10 08:00:50;;;;;;;4.07;1.60;;;7.20;99.90;;;;;;4906578;29;20224;-72
2023/01/10 08:03:16;;;;;;;4.27;1.67;;;7.10;99.90;;;;;;4889389;29;20462;-71
2023/01/10 08:05:44;;;;;;;5.47;1.53;;;7.10;99.90;;;;;;4899900;29;20190;-72
2023/01/10 08:08:11;;;;;;;6.20;1.80;;;7.10;99.90;;;;;;4901520;29;20273;-72
2023/01/10 08:10:40;;;;;;;6.13;1.50;;;7.10;99.90;;;;;;4901090;29;20179;-72
2023/01/10 08:13:06;;;;;;;5.40;1.50;;;7.10;99.90;;;;;;4900307;29;20212;-71
2023/01/10 08:15:32;;;;;;;6.33;1.43;;;7.10;99.90;;;;;;4900123;29;20183;-72
2023/01/10 08:18:01;;;;;;;6.67;1.70;;;7.10;99.90;;;;;;4896536;29;20187;-71
2023/01/10 08:20:27;;;;;;;9.63;1.70;;;7.10;99.90;;;;;;4900678;29;20210;-72
2023/01/10 08:22:55;;;;;;;4.30;1.83;;;7.20;99.90;;;;;;4900730;29;20190;-71
2023/01/10 08:25:21;;;;;;;5.33;1.60;;;7.10;99.90;;;;;;4900401;29;20278;-70
2023/01/10 08:27:46;;;;;;;4.37;1.47;;;7.10;99.90;;;;;;4900389;29;20182;-72
2023/01/10 08:30:15;;;;;;;7.50;1.60;;;7.10;99.90;;;;;;4900593;29;20175;-72
2023/01/10 08:32:43;;;;;;;5.70;1.60;;;7.10;99.90;;;;;;4900106;29;20210;-72
2023/01/10 08:35:09;;;;;;;4.27;1.50;;;7.20;99.90;;;;;;4897231;29;20270;-72
2023/01/10 08:37:35;;;;;;;4.80;1.53;;;7.20;99.90;;;;;;4894980;29;20179;-72
2023/01/10 08:40:01;;;;;;;5.47;1.70;;;7.20;99.90;;;;;;4899654;29;20202;-71
2023/01/10 08:42:27;;;;;;;6.20;1.93;;;7.20;99.90;;;;;;4901148;29;20179;-71
2023/01/10 08:44:54;;;;;;;6.70;1.80;;;7.20;99.90;;;;;;4900321;29;20217;-69
2023/01/10 08:47:22;;;;;;;3.80;1.80;;;7.20;99.90;;;;;;4884786;29;20286;-72
2023/01/10 08:49:48;;;;;;;4.50;2.00;;;7.20;99.90;;;;;;4899578;29;20218;-72
2023/01/10 08:52:17;;;;;;;5.40;1.80;;;7.30;99.90;;;;;;4899736;29;20211;-72
2023/01/10 08:54:45;;;;;;;4.57;1.70;;;7.30;99.90;;;;;;4900197;29;20182;-71
2023/01/10 08:57:11;;;;;;;4.87;1.70;;;7.30;99.90;;;;;;4900304;29;20293;-71
2023/01/10 08:59:39;;;;;;;5.73;1.67;;;7.30;99.90;;;;;;4907586;29;21720;-72
2023/01/10 09:02:07;;;;;;;5.27;1.77;;;7.30;99.90;;;;;;4900035;29;20209;-71
2023/01/10 09:04:33;;;;;;;6.57;1.70;;;7.30;99.90;;;;;;4910750;29;20171;-71
2023/01/10 09:06:58;;;;;;;4.70;1.63;;;7.40;99.90;;;;;;4899088;29;20192;-71
2023/01/10 09:09:26;;;;;;;3.73;1.40;;;7.40;99.90;;;;;;4899691;29;20200;-71
2023/01/10 09:11:52;;;;;;;5.73;1.70;;;7.50;99.90;;;;;;4899631;29;20195;-71
2023/01/10 09:14:17;;;;;;;5.13;1.60;;;7.70;99.90;;;;;;4899974;29;20282;-71
2023/01/10 09:16:43;;;;;;;6.07;1.80;;;7.90;99.90;;;;;;4899705;29;20218;-72
2023/01/10 09:19:09;;;;;;;4.70;1.80;;;8.20;99.90;;;;;;4900244;29;20190;-72
2023/01/10 09:21:34;;;;;;;4.13;1.47;;;8.40;99.90;;;;;;4899676;29;20210;-72
2023/01/10 09:24:00;;;;;;;5.13;1.83;;;8.50;99.90;;;;;;4900004;29;20198;-72
2023/01/10 09:26:25;;;;;;;4.87;1.70;;;8.70;99.90;;;;;;4899631;29;20199;-71
2023/01/10 09:28:51;;;;;;;6.40;1.90;;;8.80;99.90;;;;;;4898617;29;20217;-72
2023/01/10 09:31:16;;;;;;;6.20;2.03;;;9.00;99.90;;;;;;4899390;29;20187;-71
2023/01/10 09:33:45;;;;;;;4.03;1.70;;;9.10;99.90;;;;;;4899379;29;20183;-71
2023/01/10 09:36:14;;;;;;;8.57;2.20;;;9.30;99.90;;;;;;4899700;29;20198;-71
2023/01/10 09:38:42;;;;;;;5.07;1.60;;;9.50;99.90;;;;;;4899040;29;20223;-72
2023/01/10 09:41:28;;;;;;;6.30;1.80;;;9.70;99.90;;;;;;4899133;29;20228;-71
2023/01/10 09:44:03;;;;;;;4.40;1.67;;;9.90;99.90;;;;;;4881356;29;20175;-72
2023/01/10 09:46:53;;;;;;;6.40;1.97;;;10.00;99.90;;;;;;4895213;29;20198;-72
2023/01/10 09:49:45;;;;;;;5.83;1.80;;;10.20;99.90;;;;;;4899632;29;20226;-72
2023/01/10 09:52:24;;;;;;;8.37;2.20;;;10.30;99.90;;;;;;4890296;29;20251;-71
2023/01/10 09:54:53;;;;;;;5.93;2.07;;;10.50;99.90;;;;;;4897888;29;20211;-72
2023/01/10 09:57:23;;;;;;;6.18;2.05;;;10.60;99.90;;;;;;4897845;29;20190;-70
2023/01/10 09:59:52;;;;;;;4.97;1.83;;;10.60;99.90;;;;;;4893212;29;20567;-72
2023/01/10 10:02:37;;;;;;;8.55;1.90;;;10.70;99.90;;;;;;4897236;29;20182;-71
2023/01/10 10:05:21;;;;;;;8.07;2.03;;;10.70;99.90;;;;;;4898831;29;20198;-71
2023/01/10 10:07:53;;;;;;;5.90;1.67;;;10.80;99.90;;;;;;4895273;29;20203;-72
2023/01/10 10:10:38;;;;;;;4.72;1.70;;;10.80;99.90;;;;;;4899091;29;20183;-72
2023/01/10 10:13:13;;;;;;;8.40;2.13;;;10.90;99.90;;;;;;4898439;29;20250;-71
2023/01/10 10:15:48;;;;;;;9.50;2.90;;;10.80;99.90;;;;;;4908269;29;20217;-70
2023/01/10 10:18:32;;;;;;;10.57;2.22;;;10.80;99.90;;;;;;4916531;29;20211;-68
2023/01/10 10:21:22;;;;;;;7.82;1.98;;;10.70;99.90;;;;;;4897621;29;20221;-71
2023/01/10 10:24:09;;;;;;;6.65;1.92;;;10.70;99.90;;;;;;4898815;29;20199;-71
2023/01/10 10:27:07;;;;;;;11.88;2.50;;;10.70;99.90;;;;;;4890488;29;20182;-71
2023/01/10 10:30:10;;;;;;;8.15;2.30;;;10.70;99.90;;;;;;4898798;29;20203;-71
2023/01/10 10:33:12;;;;;;;6.75;1.85;;;10.70;99.90;;;;;;4892957;29;20178;-70
2023/01/10 10:35:42;;;;;;;9.73;1.95;;;10.70;99.90;;;;;;4900505;29;20285;-71
2023/01/10 10:38:13;;;;;;;5.68;1.88;;;10.60;99.90;;;;;;4916835;29;20186;-69
2023/01/10 10:40:45;;;;;;;6.95;2.00;;;10.60;99.90;;;;;;4915928;29;20190;-70
2023/01/10 10:43:20;;;;;;;7.30;1.80;;;10.60;99.90;;;;;;4911136;29;20202;-70
2023/01/10 10:46:04;;;;;;;6.90;1.75;;;10.60;99.90;;;;;;4906748;29;20278;-72
2023/01/10 10:48:39;;;;;;;6.75;1.67;;;10.70;99.90;;;;;;4898426;29;20193;-71
2023/01/10 10:51:15;;;;;;;11.65;2.15;;;10.60;99.90;;;;;;4908865;29;20202;-71
2023/01/10 10:53:41;;;;;;;7.60;2.28;;;10.70;99.90;;;;;;4895500;29;20239;-71
2023/01/10 10:56:11;;;;;;;8.60;2.05;;;10.70;99.90;;;;;;4905476;29;20205;-72
2023/01/10 10:58:43;;;;;;;7.18;1.98;;;10.70;99.90;;;;;;4900366;29;20201;-72
2023/01/10 11:01:15;;;;;;;7.43;2.00;;;10.70;99.90;;;;;;4898102;29;20206;-70
2023/01/10 11:04:11;;;;;;;10.10;2.17;;;10.70;99.90;;;;;;4904961;29;20188;-72
2023/01/10 11:06:39;;;;;;;9.25;2.25;;;10.80;99.90;;;;;;4913539;29;20210;-71
2023/01/10 11:09:06;;;;;;;8.88;2.08;;;10.80;99.90;;;;;;4904444;29;20186;-71
2023/01/10 11:11:36;;;;;;;9.93;2.40;;;10.80;99.90;;;;;;4904490;29;20189;-72
2023/01/10 11:14:05;;;;;;;6.13;1.90;;;10.80;99.90;;;;;;4904640;29;20489;-72
2023/01/10 11:16:37;;;;;;;8.13;2.13;;;10.80;99.90;;;;;;4903920;29;20182;-72
2023/01/10 11:19:17;;;;;;;8.88;2.20;;;10.70;99.90;;;;;;4892971;29;20171;-72
2023/01/10 11:21:56;;;;;;;8.80;2.45;;;10.70;99.90;;;;;;4898348;29;20190;-72
2023/01/10 11:24:48;;;;;;;5.60;1.60;;;10.70;99.90;;;;;;4898385;29;20283;-72
2023/01/10 11:27:17;;;;;;;9.25;2.50;;;10.60;99.90;;;;;;4905867;29;20193;-74
2023/01/10 11:29:46;;;;;;;5.82;1.90;;;10.60;99.90;;;;;;4904505;29;20190;-71
2023/01/10 11:32:19;;;;;;;10.23;2.22;;;10.60;99.90;;;;;;4891306;29;20190;-72
2023/01/10 11:34:57;;;;;;;6.72;1.58;;;10.60;99.90;;;;;;4897009;29;20348;-74
2023/01/10 11:37:30;;;;;;;5.57;2.00;;;10.50;99.90;;;;;;4904391;29;20205;-72
2023/01/10 11:40:18;;;;;;;7.25;2.00;;;10.50;99.90;;;;;;4903718;29;20202;-72
2023/01/10 11:42:44;;;;;;;10.13;2.15;;;10.50;99.90;;;;;;4897526;29;20198;-73
2023/01/10 11:45:16;;;;;;;5.93;1.50;;;10.50;99.90;;;;;;4902992;29;20202;-73
2023/01/10 11:48:02;;;;;;;6.20;1.95;;;10.40;99.90;;;;;;4903516;29;20195;-71
2023/01/10 11:50:35;;;;;;;6.80;1.70;;;10.40;99.90;;;;;;4903897;29;20195;-73
2023/01/10 11:53:00;;;;;;;6.47;2.30;;;10.40;99.90;;;;;;4896546;29;20198;-71
2023/01/10 11:55:33;;;;;;;8.55;2.40;;;10.40;99.90;;;;;;4901736;29;20302;-72
2023/01/10 11:58:13;;;;;;;5.00;1.70;;;10.40;99.90;;;;;;4904382;29;20187;-73
2023/01/10 12:00:45;;;;;;;5.95;1.80;;;10.40;99.90;;;;;;4895012;29;20213;-72
2023/01/10 12:03:35;;;;;;;8.70;1.80;;;10.50;99.90;;;;;;4907580;29;20181;-73
2023/01/10 12:06:06;;;;;;;6.78;2.00;;;10.40;99.90;;;;;;4886747;29;20167;-72
2023/01/10 12:08:37;;;;;;;7.75;2.50;;;10.40;99.90;;;;;;4917644;29;20205;-71
2023/01/10 12:11:12;;;;;;;9.98;2.45;;;10.40;99.90;;;;;;4911719;29;20230;-73
2023/01/10 12:13:49;;;;;;;5.85;1.65;;;10.40;99.90;;;;;;4901645;29;20178;-73
2023/01/10 12:16:21;;;;;;;9.10;2.10;;;10.50;99.90;;;;;;4901208;29;20213;-72
2023/01/10 12:18:58;;;;;;;5.77;2.17;;;10.50;99.90;;;;;;4900971;29;20205;-72
2023/01/10 12:21:25;;;;;;;7.68;2.15;;;10.40;99.90;;;;;;4900829;29;20190;-73
2023/01/10 12:23:57;;;;;;;5.25;1.67;;;10.50;99.90;;;;;;4900851;29;20195;-72
2023/01/10 12:26:26;;;;;;;4.45;1.40;;;10.40;99.90;;;;;;4900163;29;20185;-72
2023/01/10 12:28:56;;;;;;;5.05;1.80;;;10.40;99.90;;;;;;4899851;29;20209;-73
2023/01/10 12:31:22;;;;;;;8.60;2.42;;;10.50;99.90;;;;;;4900290;29;20318;-72
2023/01/10 12:34:04;;;;;;;8.38;2.40;;;10.40;99.90;;;;;;4900918;29;20200;-71
2023/01/10 12:36:43;;;;;;;7.40;2.00;;;10.50;99.90;;;;;;4909121;29;20186;-72
2023/01/10 12:39:35;;;;;;;5.43;1.95;;;10.40;99.90;;;;;;4902684;29;20182;-71
2023/01/10 12:45:12;;;;;;;7.90;1.92;;;10.40;99.90;;;;;;4901658;29;20215;-72
2023/01/10 12:47:55;;;;;;;4.93;1.67;;;10.30;99.90;;;;;;4900613;29;20214;-72
2023/01/10 12:50:27;;;;;;;6.72;1.95;;;10.30;99.90;;;;;;4899716;29;20233;-71
2023/01/10 12:52:59;;;;;;;6.57;1.73;;;10.30;99.90;;;;;;4900381;29;20253;-70
2023/01/10 12:55:36;;;;;;;6.60;1.50;;;10.20;99.90;;;;;;4918794;29;20201;-72
2023/01/10 12:58:04;;;;;;;13.75;1.90;;;10.20;99.90;;;;;;4901368;29;20205;-71
2023/01/10 13:00:38;;;;;;;8.82;2.03;;;10.20;99.90;;;;;;4899598;29;20451;-72
2023/01/10 13:03:12;;;;;;;6.13;1.80;;;10.20;99.90;;;;;;4893465;29;20212;-71
2023/01/10 13:05:37;;;;;;;5.90;1.93;;;10.20;99.90;;;;;;4915813;29;20458;-70
2023/01/10 13:08:12;;;;;;;6.47;1.93;;;10.20;99.90;;;;;;4899621;29;20221;-71
2023/01/10 13:10:42;;;;;;;8.15;2.40;;;10.10;99.90;;;;;;4900060;29;20190;-71
2023/01/10 13:13:20;;;;;;;5.63;1.90;;;10.10;99.90;;;;;;4900222;29;20208;-72
2023/01/10 13:15:51;;;;;;;5.30;1.97;;;10.10;99.90;;;;;;4899776;29;20257;-70
2023/01/10 13:18:35;;;;;;;6.05;1.85;;;10.00;99.90;;;;;;4900277;29;20190;-71
2023/01/10 13:21:13;;;;;;;6.10;2.00;;;10.00;99.90;;;;;;4900145;29;20282;-72
2023/01/10 13:23:51;;;;;;;5.50;1.50;;;10.00;99.90;;;;;;4898178;29;20214;-71
2023/01/10 13:26:20;;;;;;;7.43;1.73;;;10.00;99.90;;;;;;4897642;29;20182;-71